createdAt,value
2022-11-27T00:00:32.098Z,2.60
2022-11-27T00:01:35.218Z,2.75
2022-11-27T00:02:40.764Z,2.40
2022-11-27T00:03:43.418Z,3.15
2022-11-27T00:04:46.222Z,3.05
2022-11-27T00:05:54.767Z,2.60
2022-11-27T00:06:57.557Z,3.13
2022-11-27T00:07:59.396Z,3.40
2022-11-27T00:09:05.180Z,2.58
2022-11-27T00:10:09.108Z,3.05
2022-11-27T00:11:13.670Z,2.80
2022-11-27T00:12:16.464Z,2.63
2022-11-27T00:13:18.260Z,2.83
2022-11-27T00:14:23.340Z,2.55
2022-11-27T00:15:25.164Z,3.00
2022-11-27T00:16:29.007Z,2.78
2022-11-27T00:17:31.164Z,3.10
2022-11-27T00:18:34.417Z,3.17
2022-11-27T00:19:36.099Z,3.50
2022-11-27T00:20:38.738Z,3.60
2022-11-27T00:21:41.478Z,2.80
2022-11-27T00:22:43.226Z,3.08
2022-11-27T00:23:46.270Z,3.58
2022-11-27T00:24:47.932Z,3.20
2022-11-27T00:25:51.941Z,3.00
2022-11-27T00:26:53.698Z,3.42
2022-11-27T00:27:56.551Z,3.42
2022-11-27T00:28:58.726Z,3.45
2022-11-27T00:30:02.780Z,3.17
2022-11-27T00:31:06.274Z,3.15
2022-11-27T00:32:09.106Z,3.20
2022-11-27T00:33:10.828Z,3.00
2022-11-27T00:34:13.635Z,3.30
2022-11-27T00:35:15.427Z,3.67
2022-11-27T00:36:18.153Z,3.53
2022-11-27T00:37:19.857Z,3.67
2022-11-27T00:38:22.651Z,3.47
2022-11-27T00:39:27.555Z,3.42
2022-11-27T00:40:30.188Z,3.17
2022-11-27T00:41:32.721Z,3.85
2022-11-27T00:42:35.546Z,3.15
2022-11-27T00:43:43.922Z,3.20
2022-11-27T00:44:47.147Z,3.63
2022-11-27T00:45:50.563Z,3.60
2022-11-27T00:46:53.279Z,3.72
2022-11-27T00:47:55.034Z,2.85
2022-11-27T00:48:58.062Z,3.15
2022-11-27T00:49:59.847Z,3.30
2022-11-27T00:51:03.208Z,2.78
2022-11-27T00:52:06.297Z,2.80
2022-11-27T00:53:08.239Z,3.08
2022-11-27T00:54:11.097Z,3.13
2022-11-27T00:55:12.822Z,3.25
2022-11-27T00:56:17.499Z,3.03
2022-11-27T00:57:19.227Z,3.50
2022-11-27T00:58:22.153Z,2.97
2022-11-27T00:59:24.896Z,2.88
2022-11-27T01:00:26.659Z,3.47
2022-11-27T01:01:32.524Z,3.17
2022-11-27T01:02:34.272Z,2.60
2022-11-27T01:03:37.151Z,2.88
2022-11-27T01:04:40.171Z,2.78
2022-11-27T01:05:42.020Z,2.90
2022-11-27T01:06:45.614Z,2.95
2022-11-27T01:07:47.389Z,2.92
2022-11-27T01:08:50.706Z,2.90
2022-11-27T01:09:52.443Z,3.00
2022-11-27T01:10:57.433Z,3.42
2022-11-27T01:12:00.086Z,3.38
2022-11-27T01:13:01.851Z,2.78
2022-11-27T01:14:06.894Z,3.72
2022-11-27T01:15:10.017Z,3.40
2022-11-27T01:16:14.992Z,3.00
2022-11-27T01:17:18.436Z,3.70
2022-11-27T01:18:21.217Z,3.22
2022-11-27T01:19:23.315Z,3.10
2022-11-27T01:20:26.054Z,3.58
2022-11-27T01:21:29.558Z,2.90
2022-11-27T01:22:32.280Z,3.05
2022-11-27T01:23:34.179Z,3.38
2022-11-27T01:24:36.996Z,2.78
2022-11-27T01:25:38.770Z,3.55
2022-11-27T01:26:41.588Z,3.42
2022-11-27T01:27:43.376Z,2.53
2022-11-27T01:28:46.519Z,2.90
2022-11-27T01:29:48.426Z,3.03
2022-11-27T01:30:52.123Z,3.42
2022-11-27T01:31:55.010Z,3.47
2022-11-27T01:32:58.173Z,3.38
2022-11-27T01:34:02.340Z,3.15
2022-11-27T01:35:04.473Z,3.25
2022-11-27T01:36:08.405Z,3.17
2022-11-27T01:37:10.211Z,3.38
2022-11-27T01:38:12.931Z,2.72
2022-11-27T01:39:16.784Z,3.40
2022-11-27T01:40:19.528Z,3.10
2022-11-27T01:41:23.098Z,3.03
2022-11-27T01:42:25.836Z,3.30
2022-11-27T01:43:42.389Z,2.97
2022-11-27T01:44:51.133Z,3.40
2022-11-27T01:45:52.893Z,3.38
2022-11-27T01:46:56.821Z,2.88
2022-11-27T01:48:01.896Z,3.35
2022-11-27T01:49:23.578Z,3.40
2022-11-27T01:50:28.159Z,2.58
2022-11-27T01:51:31.595Z,3.08
2022-11-27T01:52:35.790Z,3.00
2022-11-27T01:53:38.560Z,3.13
2022-11-27T01:54:45.980Z,3.13
2022-11-27T01:55:50.203Z,2.75
2022-11-27T01:56:56.189Z,2.67
2022-11-27T01:58:01.633Z,2.95
2022-11-27T01:59:04.072Z,3.35
2022-11-27T02:00:08.801Z,2.65
2022-11-27T02:01:11.685Z,2.80
2022-11-27T02:02:13.746Z,2.70
2022-11-27T02:03:17.984Z,3.28
2022-11-27T02:04:19.835Z,2.90
2022-11-27T02:05:24.101Z,2.75
2022-11-27T02:06:25.991Z,2.80
2022-11-27T02:07:28.964Z,2.83
2022-11-27T02:08:30.794Z,3.30
2022-11-27T02:09:33.741Z,2.42
2022-11-27T02:10:48.963Z,2.72
2022-11-27T02:11:58.215Z,2.75
2022-11-27T02:13:06.640Z,2.55
2022-11-27T02:14:14.087Z,2.83
2022-11-27T02:15:22.232Z,2.38
2022-11-27T02:16:29.790Z,2.40
2022-11-27T02:17:38.784Z,3.03
2022-11-27T02:18:48.396Z,3.13
2022-11-27T02:20:05.841Z,3.13
2022-11-27T02:21:13.305Z,2.17
2022-11-27T02:22:27.883Z,2.65
2022-11-27T02:23:54.261Z,2.90
2022-11-27T02:25:04.039Z,2.95
2022-11-27T02:26:20.994Z,2.30
2022-11-27T02:27:34.975Z,3.00
2022-11-27T02:28:52.391Z,2.70
2022-11-27T02:29:57.005Z,2.37
2022-11-27T02:31:05.305Z,2.60
2022-11-27T02:32:10.319Z,3.37
2022-11-27T02:33:14.343Z,2.50
2022-11-27T02:34:29.055Z,2.90
2022-11-27T02:35:33.867Z,3.15
2022-11-27T02:36:35.635Z,2.70
2022-11-27T02:37:42.781Z,2.80
2022-11-27T02:38:47.482Z,2.88
2022-11-27T02:39:53.860Z,2.78
2022-11-27T02:40:59.651Z,2.60
2022-11-27T02:42:08.073Z,2.17
2022-11-27T02:43:12.237Z,3.10
2022-11-27T02:44:17.544Z,2.97
2022-11-27T02:45:22.591Z,3.13
2022-11-27T02:46:27.485Z,3.03
2022-11-27T02:47:30.546Z,2.80
2022-11-27T02:48:36.108Z,2.70
2022-11-27T02:49:38.253Z,2.90
2022-11-27T02:50:42.866Z,2.67
2022-11-27T02:51:48.191Z,3.17
2022-11-27T02:52:52.992Z,2.73
2022-11-27T02:53:57.476Z,3.00
2022-11-27T02:55:01.909Z,3.40
2022-11-27T02:56:05.648Z,2.78
2022-11-27T02:57:09.361Z,2.80
2022-11-27T02:58:13.835Z,2.97
2022-11-27T02:59:19.144Z,2.70
2022-11-27T03:00:21.042Z,2.93
2022-11-27T03:01:24.955Z,2.80
2022-11-27T03:02:30.094Z,2.80
2022-11-27T03:03:35.774Z,3.00
2022-11-27T03:04:41.103Z,3.07
2022-11-27T03:05:46.506Z,2.97
2022-11-27T03:06:51.498Z,3.00
2022-11-27T03:07:57.304Z,3.30
2022-11-27T03:09:03.841Z,3.00
2022-11-27T03:10:10.281Z,3.03
2022-11-27T03:11:14.379Z,2.70
2022-11-27T03:12:18.346Z,2.80
2022-11-27T03:13:20.261Z,3.03
2022-11-27T03:14:24.834Z,2.83
2022-11-27T03:15:28.387Z,2.40
2022-11-27T03:16:36.540Z,2.90
2022-11-27T03:17:51.529Z,2.30
2022-11-27T03:19:00.110Z,2.50
2022-11-27T03:20:09.718Z,2.90
2022-11-27T03:21:19.849Z,2.73
2022-11-27T03:22:21.791Z,3.00
2022-11-27T03:23:24.609Z,2.90
2022-11-27T03:24:27.288Z,3.10
2022-11-27T03:25:30.048Z,3.00
2022-11-27T03:26:32.014Z,2.80
2022-11-27T03:27:37.082Z,2.60
2022-11-27T03:28:39.272Z,2.70
2022-11-27T03:29:46.738Z,2.97
2022-11-27T03:30:49.507Z,2.77
2022-11-27T03:31:51.842Z,2.67
2022-11-27T03:32:54.850Z,2.60
2022-11-27T03:33:56.924Z,2.80
2022-11-27T03:34:59.847Z,2.47
2022-11-27T03:36:01.696Z,2.80
2022-11-27T03:37:05.025Z,3.13
2022-11-27T03:38:06.780Z,2.70
2022-11-27T03:39:09.843Z,3.30
2022-11-27T03:40:12.879Z,3.30
2022-11-27T03:41:22.624Z,2.70
2022-11-27T03:42:28.046Z,2.70
2022-11-27T03:43:33.469Z,2.77
2022-11-27T03:44:40.714Z,2.77
2022-11-27T03:45:53.187Z,3.10
2022-11-27T03:47:05.672Z,3.07
2022-11-27T03:48:17.618Z,2.57
2022-11-27T03:49:24.847Z,2.97
2022-11-27T03:50:34.810Z,2.90
2022-11-27T03:51:41.268Z,3.03
2022-11-27T03:52:50.346Z,2.70
2022-11-27T03:53:55.671Z,2.77
2022-11-27T03:55:02.227Z,3.00
2022-11-27T03:56:10.155Z,2.73
2022-11-27T03:57:17.810Z,2.60
2022-11-27T03:58:22.387Z,2.67
2022-11-27T03:59:26.891Z,2.60
2022-11-27T04:00:30.795Z,2.30
2022-11-27T04:01:35.206Z,3.00
2022-11-27T04:02:42.350Z,3.20
2022-11-27T04:03:45.320Z,2.77
2022-11-27T04:04:47.059Z,2.77
2022-11-27T04:05:49.692Z,2.80
2022-11-27T04:06:51.564Z,2.73
2022-11-27T04:07:54.341Z,2.70
2022-11-27T04:08:56.114Z,2.77
2022-11-27T04:09:58.831Z,3.20
2022-11-27T04:11:00.526Z,3.57
2022-11-27T04:12:03.271Z,2.87
2022-11-27T04:13:05.322Z,2.90
2022-11-27T04:14:08.268Z,2.83
2022-11-27T04:15:11.110Z,3.13
2022-11-27T04:16:13.966Z,3.27
2022-11-27T04:17:17.043Z,3.00
2022-11-27T04:18:19.772Z,3.10
2022-11-27T04:19:21.408Z,3.33
2022-11-27T04:20:24.198Z,2.90
2022-11-27T04:21:26.025Z,3.77
2022-11-27T04:22:28.762Z,2.70
2022-11-27T04:23:30.636Z,2.77
2022-11-27T04:24:33.389Z,3.43
2022-11-27T04:25:35.422Z,3.00
2022-11-27T04:26:38.184Z,3.07
2022-11-27T04:27:39.879Z,3.10
2022-11-27T04:28:42.576Z,3.40
2022-11-27T04:29:44.345Z,2.93
2022-11-27T04:30:52.039Z,3.13
2022-11-27T04:31:59.725Z,2.67
2022-11-27T04:33:04.009Z,3.00
2022-11-27T04:34:05.813Z,3.53
2022-11-27T04:35:09.367Z,3.77
2022-11-27T04:36:11.115Z,3.60
2022-11-27T04:37:13.819Z,3.37
2022-11-27T04:38:16.630Z,2.90
2022-11-27T04:39:18.500Z,3.43
2022-11-27T04:40:21.419Z,3.03
2022-11-27T04:41:23.132Z,3.43
2022-11-27T04:42:25.932Z,3.00
2022-11-27T04:43:27.630Z,3.23
2022-11-27T04:44:30.368Z,3.10
2022-11-27T04:45:32.139Z,3.67
2022-11-27T04:46:34.966Z,3.83
2022-11-27T04:47:36.715Z,2.70
2022-11-27T04:48:40.855Z,3.53
2022-11-27T04:49:42.649Z,3.00
2022-11-27T04:50:45.389Z,3.17
2022-11-27T04:51:47.217Z,3.23
2022-11-27T04:52:49.889Z,3.60
2022-11-27T04:53:51.695Z,3.17
2022-11-27T04:54:59.862Z,3.50
2022-11-27T04:56:02.083Z,3.20
2022-11-27T04:57:05.275Z,3.27
2022-11-27T04:58:07.145Z,3.03
2022-11-27T04:59:09.943Z,3.10
2022-11-27T05:00:12.794Z,3.33
2022-11-27T05:01:16.086Z,3.20
2022-11-27T05:02:17.936Z,3.93
2022-11-27T05:03:20.842Z,3.13
2022-11-27T05:04:24.090Z,3.70
2022-11-27T05:05:26.784Z,3.10
2022-11-27T05:06:28.590Z,3.23
2022-11-27T05:07:31.364Z,3.00
2022-11-27T05:08:33.615Z,3.20
2022-11-27T05:09:36.383Z,3.80
2022-11-27T05:10:38.127Z,3.20
2022-11-27T05:11:41.009Z,3.90
2022-11-27T05:12:42.811Z,3.47
2022-11-27T05:13:45.851Z,3.63
2022-11-27T05:14:47.532Z,3.63
2022-11-27T05:15:50.276Z,4.07
2022-11-27T05:16:53.786Z,3.60
2022-11-27T05:17:56.520Z,3.23
2022-11-27T05:18:58.167Z,3.63
2022-11-27T05:20:02.392Z,3.10
2022-11-27T05:21:06.347Z,3.83
2022-11-27T05:22:09.095Z,3.33
2022-11-27T05:23:10.807Z,3.60
2022-11-27T05:24:14.337Z,3.13
2022-11-27T05:25:16.335Z,3.37
2022-11-27T05:26:19.179Z,3.37
2022-11-27T05:27:20.905Z,3.87
2022-11-27T05:28:26.909Z,4.17
2022-11-27T05:29:29.347Z,3.60
2022-11-27T05:30:32.294Z,4.13
2022-11-27T05:31:34.470Z,3.40
2022-11-27T05:32:37.286Z,3.17
2022-11-27T05:33:39.101Z,3.70
2022-11-27T05:34:42.143Z,3.43
2022-11-27T05:35:45.973Z,3.30
2022-11-27T05:36:48.644Z,3.70
2022-11-27T05:37:50.382Z,3.57
2022-11-27T05:38:53.066Z,3.20
2022-11-27T05:39:55.751Z,3.60
2022-11-27T05:40:57.466Z,3.50
2022-11-27T05:42:00.190Z,3.57
2022-11-27T05:43:01.912Z,3.80
2022-11-27T05:44:04.756Z,3.67
2022-11-27T05:45:07.586Z,2.93
2022-11-27T05:46:11.860Z,3.60
2022-11-27T05:47:13.671Z,3.13
2022-11-27T05:48:16.514Z,3.87
2022-11-27T05:49:18.318Z,3.43
2022-11-27T05:50:21.019Z,3.03
2022-11-27T05:51:24.779Z,3.47
2022-11-27T05:52:27.443Z,4.03
2022-11-27T05:53:29.596Z,2.97
2022-11-27T05:54:32.331Z,3.50
2022-11-27T05:55:34.045Z,3.20
2022-11-27T05:56:36.968Z,3.40
2022-11-27T05:57:38.741Z,3.33
2022-11-27T05:58:43.092Z,3.40
2022-11-27T05:59:44.752Z,3.47
2022-11-27T06:00:47.548Z,3.77
2022-11-27T06:01:49.634Z,2.83
2022-11-27T06:02:52.565Z,3.13
2022-11-27T06:03:54.356Z,3.43
2022-11-27T06:04:57.150Z,3.47
2022-11-27T06:05:58.864Z,3.03
2022-11-27T06:07:02.998Z,3.17
2022-11-27T06:08:04.758Z,3.47
2022-11-27T06:09:12.471Z,3.27
2022-11-27T06:10:15.364Z,3.23
2022-11-27T06:11:19.735Z,2.93
2022-11-27T06:12:21.506Z,3.40
2022-11-27T06:13:24.369Z,3.60
2022-11-27T06:14:26.065Z,3.53
2022-11-27T06:15:28.776Z,3.10
2022-11-27T06:16:30.543Z,3.23
2022-11-27T06:17:33.513Z,3.10
2022-11-27T06:18:35.364Z,2.80
2022-11-27T06:19:38.076Z,3.40
2022-11-27T06:20:44.204Z,2.93
2022-11-27T06:21:48.075Z,3.23
2022-11-27T06:22:51.414Z,2.83
2022-11-27T06:23:55.021Z,3.10
2022-11-27T06:24:56.804Z,3.50
2022-11-27T06:25:59.660Z,3.00
2022-11-27T06:27:01.418Z,3.37
2022-11-27T06:28:04.241Z,2.93
2022-11-27T06:29:06.021Z,3.20
2022-11-27T06:30:10.051Z,3.03
2022-11-27T06:31:17.851Z,3.23
2022-11-27T06:32:21.112Z,2.77
2022-11-27T06:33:22.840Z,3.10
2022-11-27T06:34:25.610Z,3.10
2022-11-27T06:35:27.312Z,3.00
2022-11-27T06:36:31.880Z,3.13
2022-11-27T06:37:33.592Z,3.00
2022-11-27T06:38:38.840Z,2.87
2022-11-27T06:39:40.682Z,2.70
2022-11-27T06:40:43.558Z,2.97
2022-11-27T06:41:46.332Z,3.00
2022-11-27T06:42:48.039Z,3.30
2022-11-27T06:43:51.133Z,3.00
2022-11-27T06:44:52.939Z,2.73
2022-11-27T06:45:57.056Z,2.70
2022-11-27T06:46:59.839Z,2.80
2022-11-27T06:48:01.599Z,2.90
2022-11-27T06:49:04.709Z,3.20
2022-11-27T06:50:07.515Z,3.30
2022-11-27T06:51:12.609Z,3.30
2022-11-27T06:52:14.349Z,2.90
2022-11-27T06:53:17.084Z,3.03
2022-11-27T06:54:21.182Z,3.50
2022-11-27T06:55:22.917Z,3.20
2022-11-27T06:56:27.611Z,3.10
2022-11-27T06:57:29.380Z,3.33
2022-11-27T06:58:32.157Z,3.03
2022-11-27T06:59:33.937Z,3.23
2022-11-27T07:00:36.727Z,3.30
2022-11-27T07:01:39.581Z,2.83
2022-11-27T07:02:41.604Z,2.90
2022-11-27T07:03:44.937Z,2.93
2022-11-27T07:04:46.711Z,2.93
2022-11-27T07:05:49.443Z,3.57
2022-11-27T07:06:51.278Z,2.97
2022-11-27T07:07:54.161Z,2.70
2022-11-27T07:08:57.409Z,3.33
2022-11-27T07:10:00.571Z,3.10
2022-11-27T07:11:03.537Z,4.20
2022-11-27T07:12:05.634Z,4.80
2022-11-27T07:13:08.431Z,4.03
2022-11-27T07:14:11.182Z,3.60
2022-11-27T07:15:13.048Z,4.13
2022-11-27T07:16:16.082Z,3.20
2022-11-27T07:17:17.765Z,2.73
2022-11-27T07:18:20.604Z,3.30
2022-11-27T07:19:22.401Z,3.17
2022-11-27T07:20:25.162Z,3.47
2022-11-27T07:21:27.609Z,3.63
2022-11-27T07:22:30.367Z,3.50
2022-11-27T07:23:32.196Z,3.50
2022-11-27T07:24:35.682Z,3.47
2022-11-27T07:25:38.930Z,3.10
2022-11-27T07:26:41.815Z,3.40
2022-11-27T07:28:13.614Z,3.50
2022-11-27T07:29:31.665Z,3.43
2022-11-27T07:30:33.607Z,3.37
2022-11-27T07:31:44.890Z,4.40
2022-11-27T07:32:55.232Z,3.80
2022-11-27T07:34:00.124Z,4.33
2022-11-27T07:35:10.253Z,4.10
2022-11-27T07:36:17.665Z,4.33
2022-11-27T07:37:29.585Z,4.00
2022-11-27T07:38:35.114Z,4.13
2022-11-27T07:40:01.967Z,3.60
2022-11-27T07:41:34.263Z,4.17
2022-11-27T07:43:15.225Z,4.10
2022-11-27T07:44:32.318Z,4.07
2022-11-27T07:45:44.783Z,3.40
2022-11-27T07:47:06.241Z,3.97
2022-11-27T07:48:16.555Z,3.23
2022-11-27T07:49:34.738Z,3.60
2022-11-27T07:50:42.064Z,3.73
2022-11-27T07:51:56.050Z,3.53
2022-11-27T07:53:06.564Z,3.93
2022-11-27T07:54:16.695Z,3.40
2022-11-27T07:55:23.647Z,3.67
2022-11-27T07:56:38.089Z,3.63
2022-11-27T07:57:45.829Z,3.70
2022-11-27T07:58:50.114Z,4.23
2022-11-27T08:00:02.434Z,3.73
2022-11-27T08:01:17.974Z,3.70
2022-11-27T08:02:32.083Z,3.80
2022-11-27T08:03:34.581Z,3.80
2022-11-27T08:06:23.074Z,4.30
2022-11-27T08:07:39.029Z,4.17
2022-11-27T08:09:23.299Z,3.80
2022-11-27T08:10:32.183Z,4.13
2022-11-27T08:11:47.238Z,3.90
2022-11-27T08:12:57.982Z,3.87
2022-11-27T08:14:08.701Z,4.10
2022-11-27T08:15:24.541Z,3.40
2022-11-27T08:16:37.104Z,4.27
2022-11-27T08:17:47.077Z,4.33
2022-11-27T08:19:12.033Z,3.60
2022-11-27T08:20:37.336Z,4.20
2022-11-27T08:21:52.907Z,4.03
2022-11-27T08:23:12.974Z,4.63
2022-11-27T08:24:26.942Z,4.50
2022-11-27T08:25:55.041Z,4.27
2022-11-27T08:27:17.893Z,3.87
2022-11-27T08:28:46.067Z,4.33
2022-11-27T08:30:30.638Z,3.33
2022-11-27T08:31:46.988Z,3.83
2022-11-27T08:33:17.812Z,3.20
2022-11-27T08:38:09.634Z,2.57
2022-11-27T08:39:47.163Z,3.40
2022-11-27T08:41:32.746Z,3.33
2022-11-27T08:43:05.978Z,2.80
2022-11-27T08:44:36.281Z,3.60
2022-11-27T08:45:56.432Z,2.60
2022-11-27T08:47:17.202Z,2.70
2022-11-27T08:49:49.274Z,3.10
2022-11-27T08:51:18.993Z,2.92
2022-11-27T08:52:37.068Z,2.87
2022-11-27T08:53:45.945Z,2.93
2022-11-27T08:55:18.616Z,3.10
2022-11-27T08:56:43.002Z,3.17
2022-11-27T08:58:13.462Z,2.60
2022-11-27T08:59:46.594Z,3.27
2022-11-27T09:01:05.181Z,3.40
2022-11-27T09:02:18.389Z,3.78
2022-11-27T09:03:32.257Z,3.55
2022-11-27T09:04:44.606Z,3.90
2022-11-27T09:07:33.560Z,3.97
2022-11-27T09:09:03.260Z,4.77
2022-11-27T09:10:22.947Z,3.60
2022-11-27T09:11:38.289Z,3.67
2022-11-27T09:12:57.577Z,3.67
2022-11-27T09:14:11.702Z,3.55
2022-11-27T09:15:19.289Z,3.92
2022-11-27T09:16:29.626Z,3.90
2022-11-27T09:17:37.641Z,4.20
2022-11-27T09:18:51.710Z,3.45
2022-11-27T09:20:08.779Z,3.60
2022-11-27T09:21:28.620Z,3.60
2022-11-27T09:22:49.595Z,3.65
2022-11-27T09:25:10.730Z,3.60
2022-11-27T09:26:06.705Z,3.50
2022-11-27T09:27:24.984Z,3.83
2022-11-27T09:28:50.033Z,3.00
2022-11-27T09:30:05.199Z,3.58
2022-11-27T09:31:38.790Z,3.72
2022-11-27T09:33:00.613Z,3.42
2022-11-27T09:34:10.833Z,3.50
2022-11-27T09:35:38.989Z,3.15
2022-11-27T09:36:54.038Z,3.28
2022-11-27T09:38:13.693Z,3.33
2022-11-27T09:39:47.644Z,3.47
2022-11-27T09:41:07.695Z,3.00
2022-11-27T09:42:36.660Z,3.42
2022-11-27T09:43:55.017Z,3.22
2022-11-27T09:45:26.692Z,3.60
2022-11-27T09:48:33.230Z,3.78
2022-11-27T09:50:04.634Z,3.60
2022-11-27T09:53:12.095Z,3.75
2022-11-27T09:55:57.492Z,3.50
2022-11-27T09:57:38.060Z,4.00
2022-11-27T09:59:03.627Z,3.83
2022-11-27T10:00:30.755Z,4.20
2022-11-27T10:01:55.325Z,3.67
2022-11-27T10:03:18.174Z,3.20
2022-11-27T10:06:09.084Z,3.65
2022-11-27T10:07:17.684Z,3.35
2022-11-27T10:08:28.490Z,3.40
2022-11-27T10:09:38.383Z,4.00
2022-11-27T10:10:44.756Z,3.45
2022-11-27T10:11:54.020Z,3.80
2022-11-27T10:13:02.511Z,3.70
2022-11-27T10:14:17.477Z,3.80
2022-11-27T10:15:26.214Z,3.60
2022-11-27T10:16:34.004Z,3.35
2022-11-27T10:17:40.873Z,3.75
2022-11-27T10:18:46.623Z,3.65
2022-11-27T10:19:54.632Z,3.47
2022-11-27T10:20:58.971Z,3.85
2022-11-27T10:22:07.586Z,3.78
2022-11-27T10:23:19.017Z,3.30
2022-11-27T10:24:25.419Z,3.33
2022-11-27T10:25:30.925Z,3.30
2022-11-27T10:26:38.149Z,3.38
2022-11-27T10:27:45.343Z,3.75
2022-11-27T10:28:55.182Z,4.00
2022-11-27T10:29:57.878Z,3.67
2022-11-27T10:31:04.254Z,3.70
2022-11-27T10:32:32.809Z,3.83
2022-11-27T10:33:43.793Z,3.20
2022-11-27T10:34:49.998Z,3.40
2022-11-27T10:35:52.440Z,3.92
2022-11-27T10:36:57.007Z,3.70
2022-11-27T10:38:07.028Z,4.05
2022-11-27T10:39:15.134Z,3.85
2022-11-27T10:40:22.331Z,3.65
2022-11-27T10:41:48.109Z,3.50
2022-11-27T10:42:53.923Z,3.35
2022-11-27T10:44:00.415Z,3.58
2022-11-27T10:45:06.570Z,4.88
2022-11-27T10:46:14.226Z,4.30
2022-11-27T10:47:16.984Z,4.90
2022-11-27T10:48:19.282Z,3.80
2022-11-27T10:49:21.991Z,4.07
2022-11-27T10:50:24.649Z,3.65
2022-11-27T10:51:32.440Z,4.25
2022-11-27T10:52:35.303Z,4.10
2022-11-27T10:53:41.424Z,4.18
2022-11-27T10:54:44.480Z,3.83
2022-11-27T10:55:59.783Z,3.90
2022-11-27T10:57:15.932Z,4.00
2022-11-27T10:58:23.322Z,3.88
2022-11-27T10:59:33.058Z,3.97
2022-11-27T11:00:37.330Z,4.10
2022-11-27T11:01:44.309Z,3.80
2022-11-27T11:02:47.435Z,4.00
2022-11-27T11:03:49.254Z,4.43
2022-11-27T11:05:16.125Z,4.10
2022-11-27T11:06:22.399Z,4.05
2022-11-27T11:07:26.493Z,4.38
2022-11-27T11:08:30.253Z,4.28
2022-11-27T11:09:35.129Z,4.15
2022-11-27T11:10:39.302Z,4.35
2022-11-27T11:11:42.145Z,4.30
2022-11-27T11:12:44.075Z,3.63
2022-11-27T11:13:47.964Z,4.13
2022-11-27T11:14:55.413Z,3.80
2022-11-27T11:16:00.625Z,4.75
2022-11-27T11:17:15.270Z,3.78
2022-11-27T11:18:18.384Z,4.28
2022-11-27T11:19:26.343Z,3.95
2022-11-27T11:20:28.114Z,4.30
2022-11-27T11:21:33.247Z,4.00
2022-11-27T11:22:35.039Z,3.60
2022-11-27T11:23:40.249Z,4.20
2022-11-27T11:24:48.688Z,3.90
2022-11-27T11:25:52.120Z,3.78
2022-11-27T11:26:56.731Z,3.67
2022-11-27T11:27:58.738Z,4.07
2022-11-27T11:29:03.555Z,3.90
2022-11-27T11:30:07.812Z,4.05
2022-11-27T11:31:10.962Z,3.75
2022-11-27T11:32:16.360Z,4.28
2022-11-27T11:33:18.158Z,3.35
2022-11-27T11:34:24.063Z,3.83
2022-11-27T11:35:27.747Z,3.75
2022-11-27T11:36:31.163Z,3.33
2022-11-27T11:37:34.391Z,3.97
2022-11-27T11:38:38.075Z,3.50
2022-11-27T11:39:44.537Z,3.60
2022-11-27T11:40:59.971Z,3.60
2022-11-27T11:42:10.299Z,3.40
2022-11-27T11:43:23.831Z,3.75
2022-11-27T11:44:35.091Z,3.70
2022-11-27T11:45:45.160Z,3.92
2022-11-27T11:46:53.037Z,4.00
2022-11-27T11:47:57.573Z,4.38
2022-11-27T11:49:02.926Z,4.40
2022-11-27T11:50:06.813Z,3.65
2022-11-27T11:51:12.962Z,3.85
2022-11-27T11:52:28.987Z,3.67
2022-11-27T11:53:34.517Z,3.58
2022-11-27T11:54:48.685Z,3.67
2022-11-27T11:55:59.408Z,3.50
2022-11-27T11:57:03.919Z,3.40
2022-11-27T11:58:36.430Z,3.47
2022-11-27T11:59:45.364Z,3.03
2022-11-27T12:01:19.353Z,3.17
2022-11-27T12:02:40.629Z,3.15
2022-11-27T12:03:57.906Z,3.33
2022-11-27T12:05:15.794Z,2.30
2022-11-27T12:06:26.533Z,2.30
2022-11-27T12:07:38.717Z,2.63
2022-11-27T12:08:55.658Z,2.17
2022-11-27T12:10:04.369Z,2.50
2022-11-27T12:11:11.764Z,2.55
2022-11-27T12:12:24.485Z,2.55
2022-11-27T12:13:36.792Z,3.03
2022-11-27T12:14:44.511Z,3.28
2022-11-27T12:15:50.807Z,3.22
2022-11-27T12:17:07.392Z,3.75
2022-11-27T12:18:14.794Z,3.17
2022-11-27T12:19:31.151Z,3.10
2022-11-27T12:20:47.605Z,2.90
2022-11-27T12:21:57.003Z,2.95
2022-11-27T12:23:29.981Z,3.30
2022-11-27T12:24:41.662Z,3.58
2022-11-27T12:25:48.337Z,3.95
2022-11-27T12:27:01.515Z,3.60
2022-11-27T12:28:22.063Z,3.95
2022-11-27T12:29:36.446Z,4.07
2022-11-27T12:30:44.788Z,3.83
2022-11-27T12:32:08.182Z,3.67
2022-11-27T12:33:29.203Z,3.30
2022-11-27T12:34:40.714Z,4.10
2022-11-27T12:35:45.265Z,3.58
2022-11-27T12:37:13.717Z,3.25
2022-11-27T12:38:34.046Z,3.40
2022-11-27T12:39:52.319Z,3.65
2022-11-27T12:41:17.176Z,3.85
2022-11-27T12:42:25.954Z,3.92
2022-11-27T12:43:30.474Z,3.60
2022-11-27T12:44:39.992Z,3.50
2022-11-27T12:45:45.944Z,4.20
2022-11-27T12:46:53.425Z,4.30
2022-11-27T12:47:59.509Z,4.22
2022-11-27T12:49:05.015Z,3.42
2022-11-27T12:50:13.690Z,4.35
2022-11-27T12:51:18.791Z,3.92
2022-11-27T12:52:23.738Z,3.60
2022-11-27T12:53:30.936Z,3.67
2022-11-27T12:54:36.633Z,3.90
2022-11-27T12:55:41.826Z,4.15
2022-11-27T12:56:45.602Z,4.28
2022-11-27T12:57:51.788Z,4.47
2022-11-27T12:58:55.384Z,4.93
2022-11-27T13:00:00.664Z,4.80
2022-11-27T13:01:08.069Z,4.65
2022-11-27T13:02:23.752Z,4.85
2022-11-27T13:03:30.430Z,5.20
2022-11-27T13:04:38.867Z,4.95
2022-11-27T13:05:43.645Z,4.95
2022-11-27T13:06:51.229Z,5.75
2022-11-27T13:07:55.436Z,5.93
2022-11-27T13:09:02.608Z,5.53
2022-11-27T13:10:12.636Z,5.65
2022-11-27T13:11:16.703Z,5.07
2022-11-27T13:12:24.906Z,4.90
2022-11-27T13:13:32.456Z,5.28
2022-11-27T13:14:37.079Z,4.70
2022-11-27T13:15:43.128Z,4.30
2022-11-27T13:16:48.450Z,5.00
2022-11-27T13:17:54.161Z,5.60
2022-11-27T13:19:01.274Z,5.07
2022-11-27T13:20:05.004Z,5.18
2022-11-27T13:21:10.854Z,5.15
2022-11-27T13:22:15.797Z,5.55
2022-11-27T13:23:17.560Z,4.85
2022-11-27T13:24:20.685Z,5.03
2022-11-27T13:25:22.694Z,4.82
2022-11-27T13:26:30.016Z,4.75
2022-11-27T13:27:34.177Z,4.75
2022-11-27T13:28:43.893Z,4.85
2022-11-27T13:29:50.577Z,4.82
2022-11-27T13:30:54.606Z,4.80
2022-11-27T13:31:58.048Z,4.63
2022-11-27T13:33:02.635Z,5.03
2022-11-27T13:34:07.247Z,5.30
2022-11-27T13:35:22.910Z,4.80
2022-11-27T13:36:30.010Z,4.88
2022-11-27T13:37:36.105Z,5.13
2022-11-27T13:38:41.865Z,6.40
2022-11-27T13:39:43.585Z,5.40
2022-11-27T13:40:49.197Z,5.65
2022-11-27T13:42:01.750Z,5.55
2022-11-27T13:43:07.200Z,5.43
2022-11-27T13:44:24.604Z,6.20
2022-11-27T13:45:28.120Z,6.10
2022-11-27T13:46:31.679Z,5.50
2022-11-27T13:47:40.505Z,5.82
2022-11-27T13:48:47.782Z,5.55
2022-11-27T13:50:00.123Z,5.78
2022-11-27T13:51:03.202Z,5.90
2022-11-27T13:52:07.422Z,6.20
2022-11-27T13:53:10.270Z,6.18
2022-11-27T13:54:13.579Z,5.95
2022-11-27T13:55:24.245Z,6.43
2022-11-27T13:56:30.438Z,6.05
2022-11-27T13:57:34.284Z,5.63
2022-11-27T13:58:37.592Z,6.35
2022-11-27T13:59:41.874Z,5.72
2022-11-27T14:00:45.183Z,6.15
2022-11-27T14:01:58.117Z,5.88
2022-11-27T14:02:59.894Z,6.35
2022-11-27T14:04:09.054Z,6.35
2022-11-27T14:05:11.362Z,5.85
2022-11-27T14:06:23.031Z,5.88
2022-11-27T14:07:35.792Z,5.80
2022-11-27T14:08:39.113Z,5.45
2022-11-27T14:09:45.453Z,6.20
2022-11-27T14:10:53.198Z,5.85
2022-11-27T14:11:56.848Z,5.53
2022-11-27T14:13:02.580Z,6.13
2022-11-27T14:14:14.136Z,6.03
2022-11-27T14:15:25.719Z,5.82
2022-11-27T14:16:30.400Z,5.40
2022-11-27T14:17:39.039Z,5.93
2022-11-27T14:18:40.886Z,5.95
2022-11-27T14:19:45.654Z,5.90
2022-11-27T14:20:49.251Z,5.47
2022-11-27T14:21:52.187Z,5.65
2022-11-27T14:23:11.142Z,5.20
2022-11-27T14:24:40.759Z,5.45
2022-11-27T14:25:43.782Z,5.47
2022-11-27T14:26:45.565Z,5.45
2022-11-27T14:27:48.760Z,5.55
2022-11-27T14:28:53.494Z,5.38
2022-11-27T14:29:55.239Z,5.35
2022-11-27T14:31:00.382Z,6.07
2022-11-27T14:32:04.063Z,5.65
2022-11-27T14:33:16.023Z,5.53
2022-11-27T14:34:26.940Z,5.43
2022-11-27T14:35:29.814Z,5.43
2022-11-27T14:36:34.675Z,5.25
2022-11-27T14:37:36.523Z,6.22
2022-11-27T14:38:39.154Z,5.90
2022-11-27T14:39:41.103Z,5.97
2022-11-27T14:40:44.575Z,5.90
2022-11-27T14:41:56.624Z,6.47
2022-11-27T14:43:08.801Z,6.00
2022-11-27T14:44:17.095Z,5.25
2022-11-27T14:45:21.568Z,5.47
2022-11-27T14:46:24.756Z,6.72
2022-11-27T14:47:27.582Z,6.20
2022-11-27T14:48:33.464Z,6.07
2022-11-27T14:49:36.272Z,6.75
2022-11-27T14:50:38.995Z,6.60
2022-11-27T14:51:41.014Z,6.57
2022-11-27T14:52:44.467Z,6.32
2022-11-27T14:53:48.301Z,6.25
2022-11-27T14:54:50.147Z,5.95
2022-11-27T14:55:55.080Z,6.47
2022-11-27T14:56:57.958Z,7.00
2022-11-27T14:58:01.438Z,6.28
2022-11-27T14:59:03.882Z,6.40
2022-11-27T15:00:17.214Z,7.70
2022-11-27T15:01:27.161Z,6.57
2022-11-27T15:02:29.547Z,6.80
2022-11-27T15:03:32.880Z,6.40
2022-11-27T15:04:37.038Z,6.70
2022-11-27T15:05:38.967Z,6.50
2022-11-27T15:06:45.244Z,6.75
2022-11-27T15:07:51.015Z,6.70
2022-11-27T15:09:15.784Z,7.43
2022-11-27T15:10:21.869Z,6.57
2022-11-27T15:11:54.141Z,6.90